Terminal Aerodrome Forecast
Issued by NWS Melbourne, FL

Current Version | Previous Version | Text Only | Print | Product List | Glossary On
Versions: 1 2 3 4 5 6 7 8 9 10 11 12 13 14 15 16 17
623
FTUS42 KMLB 220526
TAFMLB
TAF
KMLB 220526Z 2206/2306 22003KT P6SM FEW100 BKN200
     FM221400 23005KT P6SM SCT025
     FM221700 11007KT P6SM VCTS SCT035CB BKN100=

USA.gov is the U.S. government's official web portal to all federal, state and local government web resources and services.